Time;durP1;ratioP1;P1;durP2;ratioP2;P2;SDS_P1;SDS_P2;PMS_P1;PMS_P2;Temp;Humidity;BMP_temperature;BMP_pressure;BME280_temperature;BME280_humidity;BME280_pressure;Samples;Min_cycle;Max_cycle;Signal;HPM_P1;HPM_P2
2022/02/09 00:05:00;;;;;;;9.67;5.30;;;9.00;99.90;;;;;;5013635;28;20236;-68
2022/02/09 00:07:42;;;;;;;5.03;4.40;;;9.00;99.90;;;;;;5013417;28;20384;-69
2022/02/09 00:10:08;;;;;;;10.50;5.63;;;9.00;99.90;;;;;;5013423;28;20418;-69
2022/02/09 00:12:47;;;;;;;8.30;4.40;;;9.00;99.90;;;;;;5013254;28;20634;-69
2022/02/09 00:15:26;;;;;;;7.60;3.50;;;9.00;99.90;;;;;;5013067;28;20381;-68
2022/02/09 00:18:23;;;;;;;6.10;3.60;;;9.00;99.90;;;;;;5012840;28;21055;-69
2022/02/09 00:34:19;;;;;;;8.27;5.57;;;8.90;99.90;;;;;;5012923;28;20838;-69
2022/02/09 00:37:16;;;;;;;7.23;5.23;;;8.90;99.90;;;;;;5013010;28;20187;-68
2022/02/09 00:59:00;;;;;;;12.17;6.50;;;8.90;99.90;;;;;;5032183;28;20541;-69
2022/02/09 01:33:07;;;;;;;7.20;4.83;;;9.00;99.90;;;;;;5020295;28;20552;-69
2022/02/09 01:40:38;;;;;;;6.60;3.70;;;8.90;99.90;;;;;;5012041;28;20404;-68
2022/02/09 01:56:21;;;;;;;8.77;4.10;;;8.80;99.90;;;;;;5018703;28;20461;-67
2022/02/09 01:58:47;;;;;;;5.57;4.50;;;8.90;99.90;;;;;;5017990;28;20463;-68
2022/02/09 02:01:12;;;;;;;5.90;4.90;;;8.90;99.90;;;;;;5018800;28;20399;-68
2022/02/09 02:03:38;;;;;;;4.70;2.93;;;8.90;99.90;;;;;;5018443;28;20898;-68
2022/02/09 02:06:04;;;;;;;7.07;4.77;;;8.90;99.90;;;;;;5018548;28;20172;-68
2022/02/09 02:08:31;;;;;;;5.87;3.70;;;8.90;99.90;;;;;;5018127;28;20675;-68
2022/02/09 02:11:22;;;;;;;8.93;4.07;;;8.90;99.90;;;;;;5018605;28;20408;-68
2022/02/09 02:16:29;;;;;;;5.30;3.87;;;8.90;99.90;;;;;;5018584;28;20407;-68
2022/02/09 02:21:52;;;;;;;5.27;3.63;;;8.90;99.90;;;;;;5018318;28;20434;-68
2022/02/09 02:26:58;;;;;;;8.80;5.20;;;8.80;99.90;;;;;;5018370;28;20411;-69
2022/02/09 02:37:17;;;;;;;6.70;3.80;;;8.80;99.90;;;;;;5018287;28;20159;-68
2022/02/09 02:40:08;;;;;;;7.77;3.37;;;8.70;99.90;;;;;;5017726;28;20953;-68
2022/02/09 02:46:11;;;;;;;9.13;4.30;;;8.80;99.90;;;;;;5018250;28;20383;-68
2022/02/09 02:57:02;;;;;;;8.30;4.40;;;8.70;99.90;;;;;;5014664;28;20530;-68
2022/02/09 02:59:32;;;;;;;7.40;4.60;;;8.70;99.90;;;;;;5014404;28;20542;-68
2022/02/09 03:15:36;;;;;;;3.90;3.50;;;8.80;99.90;;;;;;5014679;28;20392;-68
2022/02/09 03:18:31;;;;;;;5.17;2.60;;;8.80;99.90;;;;;;5014333;28;20515;-68
2022/02/09 03:21:02;;;;;;;5.00;3.33;;;8.80;99.90;;;;;;5014069;28;20756;-67
2022/02/09 03:42:34;;;;;;;5.07;3.70;;;8.90;99.90;;;;;;5013604;28;20407;-67
2022/02/09 03:47:36;;;;;;;6.40;4.40;;;8.90;99.90;;;;;;5013748;28;20491;-67
2022/02/09 03:58:18;;;;;;;8.23;4.77;;;8.90;99.90;;;;;;5013329;28;20458;-66
2022/02/09 04:00:45;;;;;;;8.83;6.70;;;8.90;99.90;;;;;;5013263;28;20400;-67
2022/02/09 04:03:18;;;;;;;6.30;5.47;;;8.90;99.90;;;;;;5013586;28;20774;-66
2022/02/09 04:05:46;;;;;;;9.43;5.60;;;8.90;99.90;;;;;;5013399;28;20433;-67
2022/02/09 04:08:15;;;;;;;6.07;4.97;;;8.90;99.90;;;;;;5013853;28;20428;-67
2022/02/09 04:10:58;;;;;;;7.90;4.97;;;8.90;99.90;;;;;;5013111;28;20471;-67
2022/02/09 04:18:38;;;;;;;10.13;5.00;;;8.90;99.90;;;;;;5013041;28;20534;-67
2022/02/09 04:43:28;;;;;;;7.40;5.40;;;8.90;99.90;;;;;;5012818;28;20421;-67
2022/02/09 04:48:41;;;;;;;9.40;5.77;;;8.80;99.90;;;;;;5012460;28;20447;-66
2022/02/09 04:54:21;;;;;;;11.20;5.97;;;8.80;99.90;;;;;;4989301;28;20408;-66
2022/02/09 04:56:54;;;;;;;9.67;6.07;;;8.80;99.90;;;;;;5012710;28;20772;-66
2022/02/09 05:02:28;;;;;;;10.43;5.87;;;8.80;99.90;;;;;;5012671;28;20411;-66
2022/02/09 05:24:01;;;;;;;6.97;4.90;;;8.80;99.90;;;;;;5011896;28;20176;-68
2022/02/09 05:26:39;;;;;;;6.53;4.83;;;8.90;99.90;;;;;;5011817;28;20397;-68
2022/02/09 05:29:05;;;;;;;7.47;5.27;;;8.80;99.90;;;;;;5011807;28;20822;-68
2022/02/09 05:31:31;;;;;;;7.47;5.47;;;8.90;99.90;;;;;;5012164;28;20418;-67
2022/02/09 05:33:56;;;;;;;9.23;5.33;;;8.90;99.90;;;;;;5011642;28;20640;-67
2022/02/09 05:36:22;;;;;;;6.13;4.03;;;8.90;99.90;;;;;;5011839;28;20431;-67
2022/02/09 05:38:47;;;;;;;9.20;5.70;;;8.90;99.90;;;;;;5011384;28;20284;-68
2022/02/09 05:41:13;;;;;;;9.20;6.40;;;8.90;99.90;;;;;;5011802;28;20624;-67
2022/02/09 05:43:38;;;;;;;8.13;5.10;;;8.90;99.90;;;;;;5011778;28;20627;-68
2022/02/09 05:46:41;;;;;;;8.70;4.47;;;8.90;99.90;;;;;;5011864;28;20173;-67
2022/02/09 05:51:46;;;;;;;6.40;4.20;;;9.00;99.90;;;;;;5011718;28;20783;-67
2022/02/09 05:56:46;;;;;;;5.90;4.20;;;8.90;99.90;;;;;;5012042;28;20415;-67
2022/02/09 06:01:46;;;;;;;7.67;5.70;;;8.90;99.90;;;;;;5011748;28;20481;-67
2022/02/09 06:04:12;;;;;;;4.90;4.07;;;8.90;99.90;;;;;;5011583;28;20550;-67
2022/02/09 06:06:37;;;;;;;5.07;3.27;;;8.90;99.90;;;;;;5011674;28;20178;-67
2022/02/09 06:09:03;;;;;;;4.33;3.30;;;8.90;99.90;;;;;;5011502;28;20202;-67
2022/02/09 06:11:49;;;;;;;4.37;3.43;;;8.90;99.90;;;;;;5011576;28;20265;-67
2022/02/09 06:14:36;;;;;;;4.10;3.20;;;8.90;99.90;;;;;;5011857;28;20187;-67
2022/02/09 06:19:53;;;;;;;5.03;4.00;;;8.90;99.90;;;;;;5011241;28;20987;-67
2022/02/09 06:22:19;;;;;;;6.03;4.13;;;8.90;99.90;;;;;;5012037;28;20884;-67
2022/02/09 06:24:44;;;;;;;6.30;3.70;;;8.90;99.90;;;;;;5011103;28;20420;-67
2022/02/09 06:27:11;;;;;;;6.43;4.33;;;8.90;99.90;;;;;;5011262;28;20446;-67
2022/02/09 06:29:37;;;;;;;3.40;2.67;;;9.00;99.90;;;;;;5012735;28;20555;-67
2022/02/09 06:32:08;;;;;;;4.23;2.70;;;9.00;99.90;;;;;;5015040;28;20419;-67
2022/02/09 06:34:38;;;;;;;5.87;2.90;;;9.00;99.90;;;;;;5015019;28;20467;-67
2022/02/09 06:37:18;;;;;;;7.47;3.40;;;9.00;99.90;;;;;;5014856;28;20407;-67
2022/02/09 06:39:46;;;;;;;3.30;2.83;;;9.00;99.90;;;;;;5014750;28;20496;-66
2022/02/09 06:42:20;;;;;;;4.17;3.37;;;9.00;99.90;;;;;;5014851;28;20408;-66
2022/02/09 06:44:45;;;;;;;8.50;2.83;;;9.00;99.90;;;;;;5014869;28;20414;-67
2022/02/09 06:47:11;;;;;;;7.40;3.10;;;9.00;99.90;;;;;;5014910;28;20725;-67
2022/02/09 06:49:37;;;;;;;4.77;3.50;;;9.00;99.90;;;;;;5014248;28;20258;-67
2022/02/09 06:52:03;;;;;;;3.70;2.20;;;9.00;99.90;;;;;;5014739;28;20667;-67
2022/02/09 06:54:42;;;;;;;3.90;3.40;;;9.10;99.90;;;;;;5014584;28;20413;-67
2022/02/09 06:57:14;;;;;;;5.97;3.77;;;9.00;99.90;;;;;;5014795;28;20843;-67
2022/02/09 06:59:41;;;;;;;3.70;3.40;;;9.10;99.90;;;;;;5014557;28;20451;-67
2022/02/09 07:02:07;;;;;;;2.57;2.20;;;9.10;99.90;;;;;;5013138;28;20422;-67
2022/02/09 07:04:37;;;;;;;3.13;2.63;;;9.10;99.90;;;;;;5014932;28;20481;-67
2022/02/09 07:07:06;;;;;;;3.90;3.30;;;9.10;99.90;;;;;;5014366;28;20490;-67
2022/02/09 07:09:32;;;;;;;3.73;3.00;;;9.20;99.90;;;;;;5014244;28;20543;-67
2022/02/09 07:11:58;;;;;;;4.60;3.70;;;9.10;99.90;;;;;;5014307;28;20466;-67
2022/02/09 07:14:26;;;;;;;3.20;2.87;;;9.20;99.90;;;;;;5015465;28;20264;-68
2022/02/09 07:16:54;;;;;;;3.90;3.10;;;9.20;99.90;;;;;;5019420;28;20514;-67
2022/02/09 07:19:20;;;;;;;2.80;2.40;;;9.20;99.90;;;;;;5014175;28;20462;-66
2022/02/09 07:21:46;;;;;;;3.43;2.50;;;9.20;99.90;;;;;;5013925;28;20781;-67
2022/02/09 07:24:15;;;;;;;5.33;3.70;;;9.20;99.90;;;;;;5014221;28;20924;-67
2022/02/09 07:26:49;;;;;;;6.17;4.50;;;9.20;99.90;;;;;;5013065;28;20443;-67
2022/02/09 07:29:16;;;;;;;4.60;3.87;;;9.30;99.90;;;;;;5013720;28;20419;-67
2022/02/09 07:31:43;;;;;;;3.53;3.23;;;9.30;99.90;;;;;;5013897;28;20416;-67
2022/02/09 07:34:09;;;;;;;3.80;3.23;;;9.30;99.90;;;;;;5013903;28;20941;-68
2022/02/09 07:36:39;;;;;;;6.20;4.00;;;9.40;99.90;;;;;;5014297;28;20501;-68
2022/02/09 07:39:07;;;;;;;4.57;3.60;;;9.40;99.90;;;;;;5014608;28;20290;-68
2022/02/09 07:41:34;;;;;;;3.77;3.37;;;9.40;99.90;;;;;;5014830;28;20430;-67
2022/02/09 07:46:54;;;;;;;5.93;3.47;;;9.40;99.90;;;;;;5013244;28;20421;-68
2022/02/09 07:49:38;;;;;;;3.57;2.83;;;9.40;99.90;;;;;;5014015;28;20443;-68
2022/02/09 07:52:13;;;;;;;2.53;2.33;;;9.40;99.90;;;;;;5015574;28;20411;-67
2022/02/09 07:54:38;;;;;;;3.77;2.60;;;9.40;99.90;;;;;;5016451;28;20477;-66
2022/02/09 07:57:04;;;;;;;2.93;2.37;;;9.40;99.90;;;;;;5015556;28;20904;-67
2022/02/09 07:59:29;;;;;;;3.10;2.80;;;9.40;99.90;;;;;;5015108;28;20215;-67
2022/02/09 08:01:55;;;;;;;3.00;2.37;;;9.40;99.90;;;;;;5015793;28;20788;-67
2022/02/09 08:04:20;;;;;;;3.83;2.60;;;9.50;99.90;;;;;;5017517;28;20175;-67
2022/02/09 08:06:47;;;;;;;3.83;2.90;;;9.50;99.90;;;;;;5014556;28;20662;-66
2022/02/09 08:09:25;;;;;;;2.73;2.50;;;9.50;99.90;;;;;;5014197;28;20189;-67
2022/02/09 08:12:00;;;;;;;2.93;2.33;;;9.50;99.90;;;;;;5014886;28;20411;-67
2022/02/09 08:23:36;;;;;;;7.13;2.30;;;9.60;99.90;;;;;;5012664;28;20470;-68
2022/02/09 08:33:16;;;;;;;4.33;2.60;;;9.60;99.90;;;;;;4993127;28;20914;-67
2022/02/09 08:35:43;;;;;;;6.03;3.57;;;9.60;99.90;;;;;;4992963;28;20410;-67
2022/02/09 08:38:08;;;;;;;2.93;2.60;;;9.60;99.90;;;;;;4992628;28;20845;-67
2022/02/09 08:40:35;;;;;;;2.67;2.33;;;9.60;99.90;;;;;;4992703;28;20459;-67
2022/02/09 08:43:01;;;;;;;3.37;2.23;;;9.60;99.90;;;;;;4992873;28;20161;-67
2022/02/09 08:45:27;;;;;;;1.80;1.70;;;9.60;99.90;;;;;;4992777;28;20965;-68
2022/02/09 08:47:53;;;;;;;2.13;1.67;;;9.70;99.90;;;;;;4992613;28;20448;-67
2022/02/09 08:50:19;;;;;;;2.03;1.60;;;9.60;99.90;;;;;;5011037;28;20410;-67
2022/02/09 08:52:45;;;;;;;2.83;1.90;;;9.60;99.90;;;;;;5011598;28;20189;-67
2022/02/09 08:55:11;;;;;;;2.20;1.57;;;9.70;99.90;;;;;;5012342;28;20458;-67
2022/02/09 08:57:37;;;;;;;2.13;1.60;;;9.60;99.90;;;;;;5012431;28;20188;-67
2022/02/09 09:00:16;;;;;;;4.90;1.90;;;9.70;99.90;;;;;;5012213;28;20447;-67
2022/02/09 09:02:46;;;;;;;1.90;1.57;;;9.60;99.90;;;;;;5012265;28;20170;-66
2022/02/09 09:05:25;;;;;;;1.30;1.20;;;9.70;99.90;;;;;;5012002;28;20416;-66
2022/02/09 09:07:57;;;;;;;4.33;2.40;;;9.60;99.90;;;;;;5012363;28;20433;-66
2022/02/09 09:10:33;;;;;;;2.80;2.07;;;9.70;99.90;;;;;;5012109;28;20407;-66
2022/02/09 09:25:22;;;;;;;2.90;2.03;;;9.70;99.90;;;;;;5011876;28;20503;-67
2022/02/09 09:41:54;;;;;;;1.63;1.53;;;10.00;99.90;;;;;;5012029;28;20449;-67
2022/02/09 10:03:11;;;;;;;2.83;2.07;;;10.00;99.90;;;;;;5015235;28;20409;-66
2022/02/09 10:31:55;;;;;;;2.27;1.80;;;9.90;99.90;;;;;;5016085;28;20408;-66
2022/02/09 10:34:22;;;;;;;2.63;1.70;;;10.00;99.90;;;;;;5015694;28;20466;-66
2022/02/09 10:36:55;;;;;;;2.00;1.90;;;10.00;99.90;;;;;;5015912;28;20470;-67
2022/02/09 10:39:27;;;;;;;3.17;2.17;;;10.10;99.90;;;;;;5015324;28;20528;-66
2022/02/09 10:42:03;;;;;;;2.33;1.93;;;10.00;99.90;;;;;;5015620;28;20412;-68
2022/02/09 10:44:51;;;;;;;3.90;2.00;;;10.20;99.90;;;;;;5015586;28;20480;-68
2022/02/09 10:47:26;;;;;;;2.00;1.57;;;10.30;99.90;;;;;;5015316;28;20470;-67
2022/02/09 10:50:26;;;;;;;1.77;1.40;;;10.20;99.90;;;;;;5015387;28;20443;-68
2022/02/09 10:52:53;;;;;;;2.17;1.90;;;10.20;99.90;;;;;;5015862;28;20399;-68
2022/02/09 10:55:38;;;;;;;2.97;1.87;;;10.20;99.90;;;;;;5016311;28;20410;-68
2022/02/09 10:58:15;;;;;;;1.93;1.73;;;10.10;99.90;;;;;;5015354;28;20454;-67
2022/02/09 11:00:46;;;;;;;2.03;1.60;;;10.10;99.90;;;;;;5014984;28;20433;-69
2022/02/09 11:03:16;;;;;;;1.70;1.43;;;10.20;99.90;;;;;;5015292;28;20406;-68
2022/02/09 11:05:45;;;;;;;3.70;2.20;;;10.20;99.90;;;;;;5015029;28;20447;-68
2022/02/09 11:08:10;;;;;;;4.43;2.43;;;10.10;99.90;;;;;;5015369;28;20457;-68
2022/02/09 11:10:36;;;;;;;5.50;2.67;;;10.10;99.90;;;;;;5015062;28;20826;-68
2022/02/09 11:13:04;;;;;;;4.20;2.57;;;10.10;99.90;;;;;;5015120;28;20172;-68
2022/02/09 11:15:30;;;;;;;3.40;2.67;;;10.20;99.90;;;;;;5014247;28;20172;-69
2022/02/09 11:17:56;;;;;;;3.13;2.03;;;10.20;99.90;;;;;;5014886;28;20423;-67
2022/02/09 11:20:28;;;;;;;1.53;1.33;;;10.30;99.90;;;;;;5015004;28;20803;-67
2022/02/09 11:22:53;;;;;;;1.67;1.30;;;10.30;99.90;;;;;;5012919;28;20176;-67
2022/02/09 11:25:34;;;;;;;1.00;0.90;;;10.30;99.90;;;;;;5014778;28;20422;-68
2022/02/09 11:28:38;;;;;;;1.63;1.53;;;10.30;99.90;;;;;;5015020;28;20254;-67
2022/02/09 11:31:17;;;;;;;1.23;1.13;;;10.30;99.90;;;;;;5014334;28;20411;-67
2022/02/09 11:33:55;;;;;;;1.33;1.23;;;10.40;99.90;;;;;;5013815;28;20985;-67
2022/02/09 11:36:32;;;;;;;2.57;1.60;;;10.50;99.90;;;;;;5013868;28;20411;-67
2022/02/09 11:39:06;;;;;;;2.87;1.60;;;10.50;99.90;;;;;;5014129;28;20889;-68
2022/02/09 11:41:37;;;;;;;1.83;1.67;;;10.50;99.90;;;;;;5013640;28;20407;-67
2022/02/09 11:44:12;;;;;;;2.23;1.47;;;10.70;99.90;;;;;;5013716;28;20430;-67
2022/02/09 11:46:59;;;;;;;2.50;1.30;;;10.60;99.90;;;;;;5013589;28;20411;-67
2022/02/09 12:00:56;;;;;;;2.50;1.43;;;10.50;99.90;;;;;;5006315;28;20424;-68
2022/02/09 12:08:50;;;;;;;1.20;1.10;;;10.40;99.90;;;;;;5013065;28;20525;-68
2022/02/09 12:09:46;;;;;;;1.20;1.10;;;10.40;99.90;;;;;;5012799;28;20439;-69
2022/02/09 12:12:16;;;;;;;6.30;1.40;;;10.40;99.90;;;;;;5013182;28;20820;-68
2022/02/09 12:20:33;;;;;;;1.60;1.50;;;10.30;99.90;;;;;;5013080;28;20458;-68
2022/02/09 12:23:14;;;;;;;1.30;1.20;;;10.40;99.90;;;;;;5012556;28;20419;-68
2022/02/09 12:25:48;;;;;;;1.50;1.10;;;10.30;99.90;;;;;;5012856;28;20391;-68
2022/02/09 12:28:20;;;;;;;1.10;0.97;;;10.20;99.90;;;;;;5012735;28;20441;-68
2022/02/09 12:30:46;;;;;;;1.30;0.87;;;10.30;99.90;;;;;;5012785;28;20413;-68
2022/02/09 12:33:23;;;;;;;1.63;1.53;;;10.30;99.90;;;;;;5013082;28;20438;-68
2022/02/09 12:35:49;;;;;;;3.13;1.20;;;10.10;99.90;;;;;;5012914;28;20474;-68
2022/02/09 12:38:14;;;;;;;1.40;1.00;;;9.90;99.90;;;;;;5012473;28;20614;-69
2022/02/09 12:40:40;;;;;;;1.10;1.00;;;9.80;99.90;;;;;;5012423;28;20547;-69
2022/02/09 12:43:12;;;;;;;1.50;1.40;;;9.70;99.90;;;;;;5012443;28;20179;-69
2022/02/09 12:45:38;;;;;;;2.07;1.50;;;9.50;99.90;;;;;;5012617;28;20203;-68
2022/02/09 12:48:06;;;;;;;3.83;1.50;;;9.40;99.90;;;;;;5012197;28;20989;-69
2022/02/09 12:50:40;;;;;;;3.53;2.20;;;9.30;99.90;;;;;;5012601;28;20566;-68
2022/02/09 12:53:08;;;;;;;4.20;1.80;;;9.40;99.90;;;;;;5012387;28;20540;-68
2022/02/09 12:55:36;;;;;;;2.00;1.50;;;9.30;99.90;;;;;;5012140;28;20403;-68
2022/02/09 12:58:11;;;;;;;2.07;1.47;;;9.40;99.90;;;;;;5011852;28;20436;-68
2022/02/09 13:00:43;;;;;;;1.53;1.43;;;9.40;99.90;;;;;;5011415;28;20768;-68
2022/02/09 13:03:15;;;;;;;1.63;1.47;;;9.60;99.90;;;;;;5010569;28;20411;-68
2022/02/09 13:05:45;;;;;;;2.27;1.40;;;9.80;99.90;;;;;;5012194;28;20395;-67
2022/02/09 13:08:16;;;;;;;1.83;1.43;;;9.70;99.90;;;;;;5011881;28;20518;-67
2022/02/09 13:10:42;;;;;;;1.43;1.23;;;9.70;99.90;;;;;;5012252;28;20900;-68
2022/02/09 13:13:23;;;;;;;1.30;1.20;;;9.90;99.90;;;;;;5011662;28;20502;-68
2022/02/09 13:16:10;;;;;;;1.53;1.37;;;9.90;99.90;;;;;;5011929;28;20230;-68
2022/02/09 13:24:49;;;;;;;3.27;1.70;;;10.00;99.90;;;;;;5011839;28;20739;-69
2022/02/09 13:53:47;;;;;;;2.10;1.43;;;10.10;99.90;;;;;;5012317;28;20434;-68
2022/02/09 14:12:25;;;;;;;1.00;0.90;;;10.00;99.90;;;;;;5011652;28;20418;-68
2022/02/09 14:17:34;;;;;;;1.37;1.03;;;10.00;99.90;;;;;;5011525;28;20501;-68
2022/02/09 14:34:50;;;;;;;1.40;1.30;;;9.90;99.90;;;;;;5010902;28;20422;-67
2022/02/09 14:55:29;;;;;;;1.10;1.00;;;9.90;99.90;;;;;;5014390;28;20898;-67
2022/02/09 14:58:10;;;;;;;2.07;1.63;;;9.80;99.90;;;;;;5014582;28;20252;-68
2022/02/09 15:00:41;;;;;;;1.50;1.20;;;9.80;99.90;;;;;;5014397;28;20410;-67
2022/02/09 15:06:08;;;;;;;0.93;0.93;;;9.70;99.90;;;;;;5014239;28;20422;-68
2022/02/09 15:08:35;;;;;;;1.13;1.03;;;9.70;99.90;;;;;;5014134;28;20206;-68
2022/02/09 15:11:08;;;;;;;1.10;1.00;;;9.60;99.90;;;;;;5014176;28;20414;-67
2022/02/09 15:13:45;;;;;;;1.53;1.43;;;9.60;99.90;;;;;;5014016;28;20412;-67
2022/02/09 15:23:48;;;;;;;7.03;1.57;;;9.60;99.90;;;;;;5014765;28;20518;-67
2022/02/09 15:26:13;;;;;;;1.67;1.23;;;9.50;99.90;;;;;;5014007;28;20202;-67
2022/02/09 15:28:39;;;;;;;1.23;1.13;;;9.50;99.90;;;;;;5013962;28;20442;-67
2022/02/09 15:31:11;;;;;;;1.23;1.13;;;9.40;99.90;;;;;;5014222;28;20169;-67
2022/02/09 15:33:47;;;;;;;1.40;1.20;;;9.40;99.90;;;;;;5029116;28;20477;-67
2022/02/09 15:36:16;;;;;;;2.90;1.30;;;9.40;99.90;;;;;;5033862;28;20403;-67
2022/02/09 15:38:47;;;;;;;1.33;1.23;;;9.40;99.90;;;;;;5033950;28;20797;-67
2022/02/09 16:05:45;;;;;;;1.83;1.20;;;9.10;99.90;;;;;;4993777;28;20443;-67
2022/02/09 16:08:31;;;;;;;1.53;1.30;;;9.10;99.90;;;;;;5030608;28;20427;-67
2022/02/09 16:16:56;;;;;;;1.30;1.20;;;9.10;99.90;;;;;;4993543;28;20415;-68
2022/02/09 16:22:13;;;;;;;1.30;1.20;;;9.10;99.90;;;;;;5007021;28;20403;-68
2022/02/09 16:25:14;;;;;;;1.77;1.67;;;9.10;99.90;;;;;;5012778;28;20454;-67
2022/02/09 16:36:37;;;;;;;2.30;1.50;;;9.20;99.90;;;;;;5032423;28;20560;-68
2022/02/09 16:38:41;;;;;;;2.27;1.30;;;9.20;99.90;;;;;;5032135;28;20876;-68
2022/02/09 16:46:33;;;;;;;1.60;1.50;;;9.20;99.90;;;;;;5005813;28;20403;-67
2022/02/09 16:49:05;;;;;;;1.83;1.70;;;9.20;99.90;;;;;;5012165;28;20499;-68
2022/02/09 16:51:40;;;;;;;5.27;1.93;;;9.20;99.90;;;;;;5012178;28;20475;-68
2022/02/09 16:54:21;;;;;;;1.43;1.33;;;9.20;99.90;;;;;;5012424;28;20882;-67
2022/02/09 16:56:56;;;;;;;1.43;1.30;;;9.20;99.90;;;;;;5012357;28;20408;-67
2022/02/09 17:21:08;;;;;;;2.00;1.47;;;9.00;99.90;;;;;;5012329;28;20410;-68
2022/02/09 17:23:33;;;;;;;2.30;2.10;;;9.00;99.90;;;;;;5011410;28;20408;-68
2022/02/09 17:25:59;;;;;;;4.20;2.30;;;9.00;99.90;;;;;;5011784;28;20643;-67
2022/02/09 17:28:24;;;;;;;2.23;2.03;;;9.00;99.90;;;;;;5011473;28;20188;-68
2022/02/09 17:33:33;;;;;;;1.97;1.77;;;9.00;99.90;;;;;;5011617;28;20175;-69
2022/02/09 17:36:04;;;;;;;1.87;1.77;;;9.00;99.90;;;;;;5012070;28;20196;-69
2022/02/09 17:38:41;;;;;;;1.70;1.47;;;9.10;99.90;;;;;;5011436;28;20565;-68
2022/02/09 17:57:43;;;;;;;1.60;1.50;;;9.20;99.90;;;;;;5011952;28;20403;-68
2022/02/09 18:00:17;;;;;;;1.97;1.77;;;9.20;99.90;;;;;;5012396;28;20459;-68
2022/02/09 18:02:51;;;;;;;1.63;1.53;;;9.20;99.90;;;;;;5012157;28;20415;-68
2022/02/09 18:05:25;;;;;;;1.73;1.63;;;9.30;99.90;;;;;;5012170;28;20409;-69
2022/02/09 18:07:56;;;;;;;1.67;1.57;;;9.30;99.90;;;;;;5011008;28;20963;-68
2022/02/09 18:13:20;;;;;;;1.60;1.50;;;9.30;99.90;;;;;;5009347;28;20423;-69
2022/02/09 18:29:27;;;;;;;2.33;2.13;;;9.20;99.90;;;;;;5015170;28;20489;-69
2022/02/09 18:34:47;;;;;;;3.17;1.77;;;9.10;99.90;;;;;;5015044;28;20897;-68
2022/02/09 18:42:54;;;;;;;2.23;2.00;;;9.10;99.90;;;;;;5014507;28;21025;-69
2022/02/09 18:47:57;;;;;;;2.43;2.23;;;9.10;99.90;;;;;;5014878;28;20862;-69
2022/02/09 19:04:13;;;;;;;3.53;2.27;;;9.20;99.90;;;;;;5014279;28;20410;-67
2022/02/09 19:07:08;;;;;;;5.37;2.37;;;9.20;99.90;;;;;;5014204;28;20416;-69
2022/02/09 19:15:22;;;;;;;2.60;2.40;;;9.20;99.90;;;;;;5014231;28;20474;-67
2022/02/09 19:20:53;;;;;;;4.87;2.77;;;9.20;99.90;;;;;;5014003;28;20951;-67
2022/02/09 19:31:37;;;;;;;2.03;1.83;;;9.30;99.90;;;;;;5013762;28;20430;-67
2022/02/09 19:40:37;;;;;;;2.03;1.87;;;9.30;99.90;;;;;;5013770;28;20774;-68
2022/02/09 19:43:12;;;;;;;2.90;2.47;;;9.30;99.90;;;;;;5021668;28;20413;-67
2022/02/09 19:45:31;;;;;;;2.67;2.03;;;9.30;99.90;;;;;;5033087;28;20418;-67
2022/02/09 19:50:47;;;;;;;4.27;2.80;;;9.30;99.90;;;;;;5013945;28;20877;-67
2022/02/09 19:55:54;;;;;;;2.37;2.20;;;9.30;99.90;;;;;;5013951;28;20405;-68
2022/02/09 19:58:22;;;;;;;2.37;1.90;;;9.30;99.90;;;;;;5013176;28;20925;-68
2022/02/09 20:00:48;;;;;;;3.40;2.60;;;9.30;99.90;;;;;;5013264;28;20776;-68
2022/02/09 20:03:14;;;;;;;4.80;3.00;;;9.30;99.90;;;;;;5012953;28;20399;-68
2022/02/09 20:05:39;;;;;;;3.27;2.63;;;9.30;99.90;;;;;;5012980;28;20411;-68
2022/02/09 20:08:07;;;;;;;3.10;2.30;;;9.30;99.90;;;;;;5015238;28;21088;-68
2022/02/09 20:10:32;;;;;;;3.93;2.60;;;9.30;99.90;;;;;;5032997;28;20177;-68
2022/02/09 20:12:58;;;;;;;3.13;2.10;;;9.30;99.90;;;;;;5021180;28;20408;-68
2022/02/09 20:15:25;;;;;;;3.70;2.73;;;9.30;99.90;;;;;;5012987;28;20171;-68
2022/02/09 20:17:52;;;;;;;3.43;2.33;;;9.30;99.90;;;;;;5012749;28;20431;-68
2022/02/09 20:20:24;;;;;;;2.83;2.13;;;9.30;99.90;;;;;;5011332;28;20503;-68
2022/02/09 20:22:52;;;;;;;4.03;2.63;;;9.30;99.90;;;;;;5013116;28;20427;-69
2022/02/09 20:25:19;;;;;;;2.53;2.20;;;9.30;99.90;;;;;;5012887;28;20404;-69
2022/02/09 20:27:46;;;;;;;3.70;2.17;;;9.20;99.90;;;;;;5013006;28;20429;-68
2022/02/09 20:30:15;;;;;;;2.33;2.07;;;9.20;99.90;;;;;;5012339;28;20431;-68
2022/02/09 20:32:47;;;;;;;3.33;2.10;;;9.20;99.90;;;;;;5013004;28;20399;-69
2022/02/09 20:35:15;;;;;;;2.50;2.27;;;9.20;99.90;;;;;;5013090;28;20443;-69
2022/02/09 20:37:45;;;;;;;3.07;2.77;;;9.20;99.90;;;;;;5013174;28;20427;-68
2022/02/09 20:40:18;;;;;;;3.40;2.43;;;9.20;99.90;;;;;;5013006;28;20577;-68
2022/02/09 20:42:54;;;;;;;3.87;2.80;;;9.20;99.90;;;;;;5012642;28;20423;-68
2022/02/09 20:45:34;;;;;;;2.47;2.23;;;9.20;99.90;;;;;;5012565;28;20956;-69
2022/02/09 20:48:06;;;;;;;2.70;2.50;;;9.20;99.90;;;;;;5011301;28;20444;-68
2022/02/09 20:50:33;;;;;;;2.30;2.07;;;9.20;99.90;;;;;;4992697;28;20887;-68
2022/02/09 20:52:58;;;;;;;3.20;2.97;;;9.20;99.90;;;;;;4992691;28;20404;-68
2022/02/09 20:55:26;;;;;;;2.93;2.63;;;9.20;99.90;;;;;;4992601;28;20410;-68
2022/02/09 20:57:52;;;;;;;3.67;2.53;;;9.20;99.90;;;;;;4993066;28;20484;-72
2022/02/09 21:00:22;;;;;;;3.20;2.43;;;9.20;99.90;;;;;;4992978;28;20466;-69
2022/02/09 21:03:04;;;;;;;3.40;2.73;;;9.20;99.90;;;;;;4992928;28;20828;-68
2022/02/09 21:05:44;;;;;;;3.30;1.97;;;9.20;99.90;;;;;;4993529;28;20763;-69
2022/02/09 21:13:37;;;;;;;3.20;2.60;;;9.20;99.90;;;;;;5017612;28;20427;-68
2022/02/09 21:19:07;;;;;;;5.17;2.60;;;9.20;99.90;;;;;;5012198;28;20463;-68
2022/02/09 21:22:10;;;;;;;5.10;2.83;;;9.20;99.90;;;;;;5012153;28;20760;-68
2022/02/09 21:24:57;;;;;;;3.57;2.80;;;9.20;99.90;;;;;;5011693;28;20888;-68
2022/02/09 21:28:00;;;;;;;6.73;2.13;;;9.20;99.90;;;;;;5010958;28;20420;-68
2022/02/09 21:33:17;;;;;;;4.80;3.20;;;9.20;99.90;;;;;;5011972;28;20830;-68
2022/02/09 21:44:34;;;;;;;3.30;2.50;;;9.10;99.90;;;;;;5012646;28;20405;-68
2022/02/09 21:49:09;;;;;;;3.47;3.10;;;9.20;99.90;;;;;;5011906;28;20409;-68
2022/02/09 21:54:54;;;;;;;3.03;2.70;;;9.10;99.90;;;;;;5012265;28;20827;-68
2022/02/09 21:57:37;;;;;;;6.40;3.17;;;9.10;99.90;;;;;;5011416;28;20486;-68
2022/02/09 22:27:05;;;;;;;6.00;3.90;;;9.20;99.90;;;;;;5014368;28;20187;-68
2022/02/09 22:45:36;;;;;;;2.93;2.57;;;9.20;99.90;;;;;;5007663;28;20416;-69
2022/02/09 22:48:34;;;;;;;4.60;3.00;;;9.30;99.90;;;;;;5014461;28;20445;-69
2022/02/09 22:56:29;;;;;;;6.57;3.03;;;9.20;99.90;;;;;;5014301;28;20406;-69
2022/02/09 22:58:55;;;;;;;4.47;3.87;;;9.20;99.90;;;;;;5013921;28;20458;-69
2022/02/09 23:01:33;;;;;;;4.17;3.10;;;9.20;99.90;;;;;;5014062;28;20413;-69
2022/02/09 23:04:30;;;;;;;3.93;3.40;;;9.20;99.90;;;;;;5014086;28;20553;-69
2022/02/09 23:07:10;;;;;;;4.33;3.00;;;9.10;99.90;;;;;;5014453;28;20499;-69
2022/02/09 23:09:49;;;;;;;3.43;2.50;;;9.10;99.90;;;;;;5028686;28;20773;-69
2022/02/09 23:12:33;;;;;;;4.03;2.93;;;9.20;99.90;;;;;;5027025;28;20431;-69
2022/02/09 23:18:12;;;;;;;5.80;3.23;;;9.10;99.90;;;;;;5013998;28;20814;-69
2022/02/09 23:23:38;;;;;;;4.20;2.90;;;9.20;99.90;;;;;;4994590;28;20415;-69
